Alexandria International, LA

4:40 PM CDT on September 30, 2014 (GMT -0500)
Downs Lane | Change Station
CLOSE
Current Station
Personal Weather Station
Location: Alexandria, LA
Elevation: 21 m
Nearby Weather Stations

Elev 21 m 31.28 °N, 92.57 °W | Updated 2 minutes ago

Partly Cloudy
Partly Cloudy
31.7 °C
Feels Like 36 °C
N
5.1
Wind Variable Wind from ESE

Today
High -- | Low -- °C
--% Chance of Precip.
Yesterday
High -- | Low -- °C
Precip. -- mm
7:03 AM 6:56 PM
Waxing Crescent, 40% visible
Pressure 1010 hPa
Visibility 16.1 kilometers
Clouds Few 3657 m
Heat Index 36 °C
Dew Point 23 °C
Humidity 59%
Rainfall 0 mm
Snow Depth Not available.
UV 4 out of 12
Pollen 8.40 out of 12
Air Quality Not available.
Flu Activity Not available.
METAR KAEX 302053Z AUTO 09005KT 10SM FEW120 32/19 A2981 RMK AO2 SLP096 T03220189 56021

More Conditions Fewer Conditions

Pressure 1010 hPa
Visibility 16.1 kilometers
Clouds Few 3657 m
Heat Index 36 °C
Dew Point 23 °C
Humidity 59%
Rainfall 0 mm
Snow Depth Not available.
UV 4 out of 12
Pollen 8.40 out of 12
Air Quality Not available.
Flu Activity Not available.
METAR KAEX 302053Z AUTO 09005KT 10SM FEW120 32/19 A2981 RMK AO2 SLP096 T03220189 56021

More Conditions Fewer Conditions

10-Day Weather Forecast

Almanac

Astronomy

Sep. 30, 2014 Rise Set
Actual Time 7:03 AM CDT 6:56 PM CDT
Civil Twilight 6:39 AM CDT 7:20 PM CDT
Nautical Twilight 6:10 AM CDT 7:48 PM CDT
Astronomical Twilight 5:42 AM CDT 8:16 PM CDT
Moon 12:54 PM CDT 11:43 PM CDT
Length of Visible Light 12h 41m
Length of Day
11h 53m
Tomorrow will be 1m 53s shorter.
Waxing Crescent, 40% of the Moon is Illuminated
Today
Waxing Crescent
Oct 1
First Quarter
Oct 8
Full
Oct 15
Last Quarter
Oct 23
New

Today's Extremes

State Highs State Lows

Community

WunderPhotos

Upload Photos

1,757,755 photos uploaded!

Nearby

Snow Depth

Station Depth Elevation
No new snow has been reported.

Earthquake Activity

City Distance Mag. Time & Date
No recent earthquake activity has been reported nearby.
Minimum magnitude displayed is 2.5.

Coastal Water Temperatures

Place Temperature
No Stations Reporting

Nearby Weather Stations